Time;durP1;ratioP1;P1;durP2;ratioP2;P2;SDS_P1;SDS_P2;PMS_P1;PMS_P2;Temp;Humidity;BMP_temperature;BMP_pressure;BME280_temperature;BME280_humidity;BME280_pressure;Samples;Min_cycle;Max_cycle;Signal;HPM_P1;HPM_P2
2023/03/17 00:00:09;;;;;;;3.88;2.90;;;;;;;;;;5125919;27;20607;-64
2023/03/17 00:02:35;;;;;;;5.00;2.75;;;;;;;;;;5138103;27;20057;-63
2023/03/17 00:05:02;;;;;;;3.25;2.95;;;;;;;;;;5138685;27;20051;-65
2023/03/17 00:07:29;;;;;;;3.92;2.53;;;;;;;;;;5131339;27;20112;-64
2023/03/17 00:09:55;;;;;;;4.55;2.45;;;;;;;;;;5131789;27;20058;-64
2023/03/17 00:12:21;;;;;;;2.95;2.45;;;;;;;;;;5137769;27;20039;-65
2023/03/17 00:14:47;;;;;;;3.60;2.63;;;;;;;;;;5137409;27;20049;-64
2023/03/17 00:17:13;;;;;;;3.05;2.67;;;;;;;;;;5137704;27;20087;-63
2023/03/17 00:19:40;;;;;;;3.78;2.60;;;;;;;;;;5136293;27;20095;-64
2023/03/17 00:22:14;;;;;;;3.63;3.25;;;;;;;;;;5134292;27;20066;-64
2023/03/17 00:24:40;;;;;;;3.97;2.38;;;;;;;;;;5132165;27;20504;-64
2023/03/17 00:27:11;;;;;;;3.67;2.45;;;;;;;;;;5139518;27;20619;-64
2023/03/17 00:29:37;;;;;;;2.83;2.47;;;;;;;;;;5116674;27;20141;-65
2023/03/17 00:32:04;;;;;;;2.60;2.40;;;;;;;;;;5133193;27;20050;-64
2023/03/17 00:34:30;;;;;;;3.25;2.30;;;;;;;;;;5138417;27;20500;-64
2023/03/17 00:36:56;;;;;;;2.40;2.10;;;;;;;;;;5134864;27;20043;-64
2023/03/17 00:39:24;;;;;;;3.15;2.85;;;;;;;;;;5131477;27;20054;-64
2023/03/17 00:41:50;;;;;;;5.43;2.72;;;;;;;;;;5119814;27;20060;-64
2023/03/17 00:44:16;;;;;;;3.30;2.95;;;;;;;;;;5133703;27;20042;-64
2023/03/17 00:46:43;;;;;;;4.57;2.60;;;;;;;;;;5135388;27;20047;-64
2023/03/17 00:49:16;;;;;;;3.58;3.22;;;;;;;;;;5132632;27;20058;-64
2023/03/17 00:51:43;;;;;;;4.53;2.20;;;;;;;;;;5135360;27;20046;-66
2023/03/17 00:54:10;;;;;;;3.70;2.78;;;;;;;;;;5136265;27;20643;-64
2023/03/17 00:56:37;;;;;;;3.45;2.25;;;;;;;;;;5135656;27;20049;-64
2023/03/17 00:59:03;;;;;;;4.28;3.00;;;;;;;;;;5135772;27;20502;-64
2023/03/17 01:01:29;;;;;;;3.22;2.25;;;;;;;;;;5133011;27;20082;-64
2023/03/17 01:03:55;;;;;;;3.22;2.47;;;;;;;;;;5137617;27;20681;-65
2023/03/17 01:06:21;;;;;;;3.35;3.05;;;;;;;;;;5131708;27;20056;-64
2023/03/17 01:08:48;;;;;;;3.42;2.53;;;;;;;;;;5133689;27;20047;-64
2023/03/17 01:11:17;;;;;;;2.85;2.10;;;;;;;;;;5135807;27;20066;-64
2023/03/17 01:13:43;;;;;;;2.40;1.98;;;;;;;;;;5115851;27;20060;-64
2023/03/17 01:16:10;;;;;;;2.42;2.22;;;;;;;;;;5133070;27;20042;-64
2023/03/17 01:18:36;;;;;;;2.85;1.80;;;;;;;;;;5133143;27;20178;-64
2023/03/17 01:21:03;;;;;;;3.28;2.03;;;;;;;;;;5133510;27;20105;-64
2023/03/17 01:23:30;;;;;;;4.38;2.72;;;;;;;;;;5130406;27;20082;-64
2023/03/17 01:25:56;;;;;;;4.40;2.50;;;;;;;;;;5135120;27;20122;-64
2023/03/17 01:28:23;;;;;;;2.55;2.05;;;;;;;;;;5135555;27;20038;-64
2023/03/17 01:30:49;;;;;;;3.30;2.45;;;;;;;;;;5133675;27;20082;-64
2023/03/17 01:33:16;;;;;;;1.90;1.80;;;;;;;;;;5135768;27;20947;-64
2023/03/17 01:35:44;;;;;;;2.83;2.25;;;;;;;;;;5133041;27;20379;-64
2023/03/17 01:38:11;;;;;;;3.05;2.30;;;;;;;;;;5116294;27;20521;-64
2023/03/17 01:40:38;;;;;;;4.68;2.45;;;;;;;;;;5132011;27;20561;-64
2023/03/17 01:43:04;;;;;;;3.63;2.60;;;;;;;;;;5135958;27;20054;-64
2023/03/17 01:45:49;;;;;;;2.50;2.25;;;;;;;;;;5139361;27;20047;-64
2023/03/17 01:48:16;;;;;;;3.38;1.80;;;;;;;;;;5112490;27;20146;-64
2023/03/17 01:50:42;;;;;;;2.13;1.92;;;;;;;;;;5132512;27;20457;-64
2023/03/17 01:53:08;;;;;;;2.13;1.92;;;;;;;;;;5132879;27;20082;-64
2023/03/17 01:55:34;;;;;;;3.15;2.25;;;;;;;;;;5136809;27;20045;-64
2023/03/17 01:58:00;;;;;;;3.78;2.17;;;;;;;;;;5135783;27;20821;-64
2023/03/17 02:00:26;;;;;;;3.55;2.35;;;;;;;;;;5136996;27;20035;-64
2023/03/17 02:02:56;;;;;;;3.83;2.00;;;;;;;;;;5134969;27;20503;-64
2023/03/17 02:05:24;;;;;;;4.68;2.72;;;;;;;;;;5133807;27;20449;-65
2023/03/17 02:07:51;;;;;;;3.13;2.30;;;;;;;;;;5136488;27;20061;-64
2023/03/17 02:10:19;;;;;;;2.30;2.10;;;;;;;;;;5134265;27;20799;-64
2023/03/17 02:12:46;;;;;;;3.78;2.47;;;;;;;;;;5134088;27;20042;-64
2023/03/17 02:15:12;;;;;;;3.60;3.15;;;;;;;;;;5133614;27;20070;-64
2023/03/17 02:17:38;;;;;;;2.20;2.00;;;;;;;;;;5133204;27;20054;-64
2023/03/17 02:20:13;;;;;;;3.58;2.38;;;;;;;;;;5135487;27;20386;-64
2023/03/17 02:22:39;;;;;;;2.30;2.10;;;;;;;;;;5137048;27;20086;-64
2023/03/17 02:25:06;;;;;;;3.28;2.65;;;;;;;;;;5131580;27;20083;-64
2023/03/17 02:27:35;;;;;;;2.50;2.05;;;;;;;;;;5116275;27;20086;-63
2023/03/17 02:30:01;;;;;;;2.08;1.88;;;;;;;;;;5139428;27;20385;-63
2023/03/17 02:32:27;;;;;;;2.65;2.17;;;;;;;;;;5136604;27;20446;-62
2023/03/17 02:34:53;;;;;;;3.40;2.25;;;;;;;;;;5140444;27;20239;-62
2023/03/17 02:37:20;;;;;;;2.58;2.30;;;;;;;;;;5140415;27;20039;-63
2023/03/17 02:39:46;;;;;;;3.28;2.13;;;;;;;;;;5141176;27;20074;-62
2023/03/17 02:42:13;;;;;;;2.63;2.30;;;;;;;;;;5141244;27;20050;-62
2023/03/17 02:44:39;;;;;;;2.22;2.00;;;;;;;;;;5139168;27;20061;-62
2023/03/17 02:47:06;;;;;;;2.45;2.00;;;;;;;;;;5139802;27;20042;-62
2023/03/17 02:49:33;;;;;;;2.75;2.35;;;;;;;;;;5140078;27;20184;-62
2023/03/17 02:52:00;;;;;;;3.95;2.55;;;;;;;;;;5138171;27;20408;-62
2023/03/17 02:54:26;;;;;;;2.40;2.20;;;;;;;;;;5120821;27;20043;-62
2023/03/17 02:56:52;;;;;;;3.33;2.78;;;;;;;;;;5142369;27;20050;-62
2023/03/17 02:59:18;;;;;;;2.95;2.40;;;;;;;;;;5138464;27;20138;-63
2023/03/17 03:01:47;;;;;;;2.53;2.33;;;;;;;;;;5133396;27;20047;-62
2023/03/17 03:04:13;;;;;;;2.15;1.95;;;;;;;;;;5133368;27;20082;-62
2023/03/17 03:06:41;;;;;;;2.47;1.95;;;;;;;;;;5136132;27;20547;-64
2023/03/17 03:09:07;;;;;;;2.50;2.28;;;;;;;;;;5139508;27;20273;-64
2023/03/17 03:11:33;;;;;;;4.07;1.80;;;;;;;;;;5135464;27;20868;-64
2023/03/17 03:13:59;;;;;;;2.58;2.15;;;;;;;;;;5140226;27;20050;-64
2023/03/17 03:16:25;;;;;;;1.95;1.85;;;;;;;;;;5135425;27;20035;-64
2023/03/17 03:18:51;;;;;;;2.58;2.05;;;;;;;;;;5140659;27;20066;-64
2023/03/17 03:21:17;;;;;;;2.92;2.63;;;;;;;;;;5136377;27;20078;-64
2023/03/17 03:23:43;;;;;;;2.78;2.20;;;;;;;;;;5138467;27;20120;-64
2023/03/17 03:26:09;;;;;;;4.47;2.10;;;;;;;;;;5134856;27;20035;-64
2023/03/17 03:28:36;;;;;;;2.53;1.85;;;;;;;;;;5138739;27;20050;-64
2023/03/17 03:31:02;;;;;;;2.33;2.13;;;;;;;;;;5134027;27;20074;-64
2023/03/17 03:33:28;;;;;;;2.72;2.17;;;;;;;;;;5139367;27;20038;-64
2023/03/17 03:35:54;;;;;;;2.00;1.80;;;;;;;;;;5140930;27;20510;-64
2023/03/17 03:38:20;;;;;;;1.92;1.67;;;;;;;;;;5142171;27;20043;-64
2023/03/17 03:40:46;;;;;;;2.70;1.90;;;;;;;;;;5141727;27;20050;-64
2023/03/17 03:43:12;;;;;;;1.50;1.40;;;;;;;;;;5138165;27;20062;-64
2023/03/17 03:45:38;;;;;;;4.30;1.65;;;;;;;;;;5144688;27;20118;-64
2023/03/17 03:48:04;;;;;;;2.25;2.05;;;;;;;;;;5142348;27;20084;-64
2023/03/17 03:50:31;;;;;;;2.13;1.92;;;;;;;;;;5142965;27;20070;-64
2023/03/17 03:52:57;;;;;;;2.30;2.10;;;;;;;;;;5143829;27;20046;-64
2023/03/17 03:55:23;;;;;;;2.60;2.08;;;;;;;;;;5141089;27;20576;-64
2023/03/17 03:57:49;;;;;;;2.15;1.95;;;;;;;;;;5138245;27;20070;-64
2023/03/17 04:00:16;;;;;;;3.35;2.67;;;;;;;;;;5137286;27;20035;-64
2023/03/17 04:02:45;;;;;;;3.10;2.38;;;;;;;;;;5139063;27;20046;-64
2023/03/17 04:05:11;;;;;;;2.40;1.90;;;;;;;;;;5122736;27;20433;-64
2023/03/17 04:07:37;;;;;;;2.67;2.10;;;;;;;;;;5142903;27;20091;-64
2023/03/17 04:10:04;;;;;;;3.05;2.10;;;;;;;;;;5141414;27;20478;-64
2023/03/17 04:12:30;;;;;;;3.33;2.10;;;;;;;;;;5140531;27;20043;-64
2023/03/17 04:14:56;;;;;;;4.82;2.05;;;;;;;;;;5142383;27;20068;-65
2023/03/17 04:17:22;;;;;;;2.35;2.15;;;;;;;;;;5142285;27;20058;-64
2023/03/17 04:19:48;;;;;;;2.50;1.77;;;;;;;;;;5137858;27;20047;-64
2023/03/17 04:22:14;;;;;;;1.92;1.73;;;;;;;;;;5136599;27;20126;-64
2023/03/17 04:24:40;;;;;;;2.85;2.25;;;;;;;;;;5140410;27;20073;-64
2023/03/17 04:27:06;;;;;;;3.55;2.10;;;;;;;;;;5143757;27;20074;-64
2023/03/17 04:29:33;;;;;;;3.03;2.08;;;;;;;;;;5143024;27;20082;-64
2023/03/17 04:31:59;;;;;;;2.40;2.20;;;;;;;;;;5140091;27;20054;-64
2023/03/17 04:34:26;;;;;;;2.30;1.80;;;;;;;;;;5139352;27;20038;-65
2023/03/17 04:36:52;;;;;;;1.67;1.58;;;;;;;;;;5140179;27;20116;-64
2023/03/17 04:39:18;;;;;;;2.13;1.92;;;;;;;;;;5140144;27;20050;-64
2023/03/17 04:41:44;;;;;;;2.28;2.00;;;;;;;;;;5139044;27;20051;-64
2023/03/17 04:44:10;;;;;;;2.35;2.15;;;;;;;;;;5138515;27;20078;-65
2023/03/17 04:46:37;;;;;;;2.40;1.95;;;;;;;;;;5136631;27;20047;-64
2023/03/17 04:49:03;;;;;;;2.28;1.75;;;;;;;;;;5136999;27;20061;-64
2023/03/17 04:51:29;;;;;;;1.92;1.67;;;;;;;;;;5120916;27;20054;-64
2023/03/17 04:53:55;;;;;;;3.17;1.95;;;;;;;;;;5137002;27;20489;-64
2023/03/17 04:56:21;;;;;;;2.28;2.00;;;;;;;;;;5142053;27;20532;-64
2023/03/17 04:58:47;;;;;;;2.42;2.20;;;;;;;;;;5139903;27;20043;-64
2023/03/17 05:01:13;;;;;;;2.22;2.03;;;;;;;;;;5117676;27;20051;-64
2023/03/17 05:03:39;;;;;;;2.67;2.47;;;;;;;;;;5135655;27;20401;-64
2023/03/17 05:06:06;;;;;;;2.83;2.05;;;;;;;;;;5135150;27;20078;-64
2023/03/17 05:08:32;;;;;;;1.90;1.70;;;;;;;;;;5139348;27;20051;-64
2023/03/17 05:10:58;;;;;;;1.70;1.58;;;;;;;;;;5140047;27;20046;-64
2023/03/17 05:13:24;;;;;;;1.90;1.52;;;;;;;;;;5142812;27;20031;-65
2023/03/17 05:15:52;;;;;;;2.10;1.88;;;;;;;;;;5135230;27;20047;-64
2023/03/17 05:18:18;;;;;;;2.50;1.80;;;;;;;;;;5141739;27;20485;-64
2023/03/17 05:20:44;;;;;;;2.85;2.22;;;;;;;;;;5137327;27;20058;-64
2023/03/17 05:23:10;;;;;;;2.75;1.80;;;;;;;;;;5131388;27;20055;-64
2023/03/17 05:25:36;;;;;;;2.30;2.05;;;;;;;;;;5136633;27;20061;-64
2023/03/17 05:28:02;;;;;;;1.85;1.60;;;;;;;;;;5136443;27;20043;-64
2023/03/17 05:30:29;;;;;;;2.78;2.10;;;;;;;;;;5137926;27;20043;-64
2023/03/17 05:32:55;;;;;;;2.13;1.92;;;;;;;;;;5131940;27;20485;-64
2023/03/17 05:35:21;;;;;;;2.78;2.05;;;;;;;;;;5129967;27;21981;-64
2023/03/17 05:37:47;;;;;;;2.47;1.75;;;;;;;;;;5133680;27;20183;-64
2023/03/17 05:40:14;;;;;;;2.13;1.77;;;;;;;;;;5136710;27;20166;-64
2023/03/17 05:42:41;;;;;;;2.70;2.15;;;;;;;;;;5134796;27;20051;-65
2023/03/17 05:45:07;;;;;;;2.38;1.75;;;;;;;;;;5137269;27;20510;-64
2023/03/17 05:47:35;;;;;;;2.88;2.38;;;;;;;;;;5135454;27;20047;-64
2023/03/17 05:50:01;;;;;;;2.20;2.00;;;;;;;;;;5138584;27;20047;-64
2023/03/17 05:52:27;;;;;;;2.10;1.90;;;;;;;;;;5136392;27;20093;-64
2023/03/17 05:54:53;;;;;;;2.00;1.80;;;;;;;;;;5136737;27;20051;-64
2023/03/17 05:57:19;;;;;;;3.53;1.88;;;;;;;;;;5134266;27;20397;-66
2023/03/17 05:59:45;;;;;;;3.40;1.83;;;;;;;;;;5132488;27;20466;-64
2023/03/17 06:02:12;;;;;;;2.00;1.80;;;;;;;;;;5133684;27;20047;-64
2023/03/17 06:04:38;;;;;;;1.77;1.50;;;;;;;;;;5134567;27;20130;-64
2023/03/17 06:07:05;;;;;;;2.00;1.65;;;;;;;;;;5132956;27;20039;-64
2023/03/17 06:09:32;;;;;;;2.80;1.88;;;;;;;;;;5138156;27;20062;-64
2023/03/17 06:11:58;;;;;;;1.83;1.73;;;;;;;;;;5131782;27;20047;-64
2023/03/17 06:14:24;;;;;;;2.60;1.92;;;;;;;;;;5135668;27;20050;-64
2023/03/17 06:16:50;;;;;;;5.82;2.00;;;;;;;;;;5135186;27;20039;-64
2023/03/17 06:19:16;;;;;;;3.45;2.25;;;;;;;;;;5134036;27;20043;-63
2023/03/17 06:21:42;;;;;;;1.88;1.70;;;;;;;;;;5135685;27;20048;-64
2023/03/17 06:24:08;;;;;;;2.25;1.95;;;;;;;;;;5131968;27;20412;-64
2023/03/17 06:26:36;;;;;;;1.65;1.25;;;;;;;;;;5138555;27;20059;-64
2023/03/17 06:29:02;;;;;;;1.92;1.73;;;;;;;;;;5131620;27;20057;-64
2023/03/17 06:31:28;;;;;;;1.65;1.55;;;;;;;;;;5118324;27;20043;-64
2023/03/17 06:33:54;;;;;;;2.13;1.92;;;;;;;;;;5139710;27;20043;-64
2023/03/17 06:36:20;;;;;;;5.07;2.25;;;;;;;;;;5131881;27;20054;-68
2023/03/17 06:38:46;;;;;;;4.07;2.00;;;;;;;;;;5134556;27;20043;-65
2023/03/17 06:41:13;;;;;;;1.75;1.63;;;;;;;;;;5132754;27;20477;-64
2023/03/17 06:43:39;;;;;;;2.50;2.28;;;;;;;;;;5139454;27;20047;-64
2023/03/17 06:46:06;;;;;;;4.20;2.40;;;;;;;;;;5137279;27;20065;-63
2023/03/17 06:48:32;;;;;;;2.13;1.90;;;;;;;;;;5136464;27;20051;-64
2023/03/17 06:50:59;;;;;;;2.50;1.63;;;;;;;;;;5137073;27;20455;-64
2023/03/17 06:53:25;;;;;;;2.92;1.50;;;;;;;;;;5135347;27;20126;-64
2023/03/17 06:55:51;;;;;;;2.00;1.80;;;;;;;;;;5131815;27;20090;-64
2023/03/17 06:58:19;;;;;;;2.63;2.10;;;;;;;;;;5133023;27;20562;-64
2023/03/17 07:00:47;;;;;;;2.17;1.63;;;;;;;;;;5134721;27;20519;-63
2023/03/17 07:03:14;;;;;;;2.08;1.98;;;;;;;;;;5136611;27;20094;-64
2023/03/17 07:05:40;;;;;;;2.88;1.90;;;;;;;;;;5134877;27;20074;-64
2023/03/17 07:08:06;;;;;;;2.53;1.70;;;;;;;;;;5140240;27;20067;-64
2023/03/17 07:10:33;;;;;;;1.83;1.60;;;;;;;;;;5139017;27;20039;-64
2023/03/17 07:12:59;;;;;;;2.15;1.77;;;;;;;;;;5140420;27;20101;-64
2023/03/17 07:15:25;;;;;;;2.28;1.90;;;;;;;;;;5137420;27;20096;-64
2023/03/17 07:17:51;;;;;;;2.05;1.75;;;;;;;;;;5135471;27;20038;-63
2023/03/17 07:20:17;;;;;;;1.70;1.60;;;;;;;;;;5139283;27;20046;-64
2023/03/17 07:22:43;;;;;;;1.90;1.70;;;;;;;;;;5134902;27;20047;-64
2023/03/17 07:25:09;;;;;;;1.80;1.70;;;;;;;;;;5135509;27;20035;-64
2023/03/17 07:27:36;;;;;;;2.42;1.70;;;;;;;;;;5121199;27;20054;-64
2023/03/17 07:30:03;;;;;;;2.58;2.35;;;;;;;;;;5133360;27;20048;-64
2023/03/17 07:32:30;;;;;;;1.73;1.63;;;;;;;;;;5134558;27;20043;-64
2023/03/17 07:34:57;;;;;;;3.38;2.03;;;;;;;;;;5139000;27;20074;-64
2023/03/17 07:37:23;;;;;;;2.67;2.33;;;;;;;;;;5141691;27;20119;-64
2023/03/17 07:39:50;;;;;;;1.85;1.75;;;;;;;;;;5138295;27;20046;-67
2023/03/17 07:42:16;;;;;;;2.78;1.90;;;;;;;;;;5137371;27;20095;-64
2023/03/17 07:44:42;;;;;;;3.80;2.40;;;;;;;;;;5138597;27;20050;-64
2023/03/17 07:47:10;;;;;;;3.10;2.30;;;;;;;;;;5138361;27;20049;-64
2023/03/17 07:49:36;;;;;;;2.47;2.28;;;;;;;;;;5139302;27;20082;-64
2023/03/17 07:52:02;;;;;;;3.13;2.63;;;;;;;;;;5140792;27;20378;-64
2023/03/17 07:54:29;;;;;;;2.47;2.05;;;;;;;;;;5138479;27;20540;-64
2023/03/17 07:56:55;;;;;;;2.38;2.17;;;;;;;;;;5136864;27;20043;-64
2023/03/17 07:59:22;;;;;;;3.78;2.55;;;;;;;;;;5140771;27;20054;-65
2023/03/17 08:01:48;;;;;;;4.22;2.63;;;;;;;;;;5139215;27;20039;-64
2023/03/17 08:04:14;;;;;;;2.92;2.45;;;;;;;;;;5132991;27;20058;-64
2023/03/17 08:06:41;;;;;;;3.67;2.28;;;;;;;;;;5138777;27;20405;-64
2023/03/17 08:09:07;;;;;;;2.35;2.13;;;;;;;;;;5138224;27;20583;-64
2023/03/17 08:11:34;;;;;;;3.08;2.22;;;;;;;;;;5139267;27;20103;-64
2023/03/17 08:14:01;;;;;;;2.72;2.35;;;;;;;;;;5134495;27;20159;-64
2023/03/17 08:16:27;;;;;;;2.88;2.28;;;;;;;;;;5138999;27;20526;-64
2023/03/17 08:18:54;;;;;;;2.95;2.58;;;;;;;;;;5137844;27;20078;-64
2023/03/17 08:21:20;;;;;;;2.03;1.80;;;;;;;;;;5136528;27;20494;-64
2023/03/17 08:23:47;;;;;;;4.47;2.15;;;;;;;;;;5134404;27;20102;-64
2023/03/17 08:26:13;;;;;;;2.30;2.05;;;;;;;;;;5138666;27;20081;-64
2023/03/17 08:28:40;;;;;;;3.15;2.85;;;;;;;;;;5137553;27;20043;-64
2023/03/17 08:31:07;;;;;;;4.63;2.40;;;;;;;;;;5134897;27;20447;-64
2023/03/17 08:33:33;;;;;;;2.70;2.47;;;;;;;;;;5139138;27;20141;-64
2023/03/17 08:35:59;;;;;;;5.70;2.00;;;;;;;;;;5135763;27;20042;-64
2023/03/17 08:38:25;;;;;;;2.35;1.95;;;;;;;;;;5136497;27;20039;-64
2023/03/17 08:40:51;;;;;;;3.88;2.25;;;;;;;;;;5136030;27;20043;-65
2023/03/17 08:43:17;;;;;;;2.65;2.13;;;;;;;;;;5140417;27;20053;-64
2023/03/17 08:45:43;;;;;;;4.00;2.60;;;;;;;;;;5114961;27;20046;-64
2023/03/17 08:48:09;;;;;;;2.40;2.03;;;;;;;;;;5133783;27;20498;-64
2023/03/17 08:50:36;;;;;;;3.10;2.80;;;;;;;;;;5135682;27;20410;-64
2023/03/17 08:53:03;;;;;;;3.88;2.25;;;;;;;;;;5134916;27;20573;-64
2023/03/17 08:55:29;;;;;;;3.17;2.10;;;;;;;;;;5136529;27;20487;-65
2023/03/17 08:57:55;;;;;;;4.38;2.50;;;;;;;;;;5138554;27;20126;-64
2023/03/17 09:00:21;;;;;;;2.55;2.35;;;;;;;;;;5134650;27;20126;-64
2023/03/17 09:02:47;;;;;;;2.28;2.00;;;;;;;;;;5134621;27;20058;-64
2023/03/17 09:05:15;;;;;;;1.77;1.60;;;;;;;;;;5136032;27;20038;-65
2023/03/17 09:07:42;;;;;;;2.15;1.95;;;;;;;;;;5140539;27;20054;-64
2023/03/17 09:10:09;;;;;;;2.30;2.10;;;;;;;;;;5133939;27;20047;-65
2023/03/17 09:12:36;;;;;;;3.88;2.50;;;;;;;;;;5144437;27;20039;-65
2023/03/17 09:15:03;;;;;;;2.70;2.50;;;;;;;;;;5143111;27;20434;-64
2023/03/17 09:17:29;;;;;;;2.35;2.15;;;;;;;;;;5141253;27;20484;-64
2023/03/17 09:19:55;;;;;;;2.85;2.53;;;;;;;;;;5135338;27;20042;-64
2023/03/17 09:22:21;;;;;;;4.15;2.55;;;;;;;;;;5152841;27;20046;-64
2023/03/17 09:24:47;;;;;;;3.33;2.85;;;;;;;;;;5128138;27;20043;-64
2023/03/17 09:27:13;;;;;;;2.97;2.67;;;;;;;;;;5139147;27;20521;-65
2023/03/17 09:29:39;;;;;;;2.45;2.13;;;;;;;;;;5135264;27;20058;-64
2023/03/17 09:32:05;;;;;;;5.47;3.30;;;;;;;;;;5138718;27;20113;-63
2023/03/17 09:34:31;;;;;;;2.42;2.22;;;;;;;;;;5137476;27;20049;-65
2023/03/17 09:36:58;;;;;;;4.32;2.78;;;;;;;;;;5142049;27;20055;-64
2023/03/17 09:39:25;;;;;;;2.40;2.20;;;;;;;;;;5146495;27;20042;-63
2023/03/17 09:42:10;;;;;;;2.70;2.42;;;;;;;;;;5147436;27;20492;-62
2023/03/17 09:44:39;;;;;;;3.05;2.75;;;;;;;;;;5146697;27;20536;-60
2023/03/17 09:47:18;;;;;;;2.67;2.00;;;;;;;;;;5157737;27;20054;-59
2023/03/17 09:49:49;;;;;;;3.15;2.85;;;;;;;;;;5151103;27;20050;-60
2023/03/17 09:52:17;;;;;;;3.42;3.03;;;;;;;;;;5152407;27;20188;-67
2023/03/17 09:54:45;;;;;;;2.80;2.50;;;;;;;;;;5147780;27;20128;-60
2023/03/17 09:57:22;;;;;;;3.45;2.65;;;;;;;;;;5148247;27;20038;-63
2023/03/17 09:59:52;;;;;;;3.85;2.40;;;;;;;;;;5156806;27;20109;-63
2023/03/17 10:02:19;;;;;;;2.47;2.20;;;;;;;;;;5145465;27;20046;-63
2023/03/17 10:04:46;;;;;;;4.35;2.67;;;;;;;;;;5148080;27;20038;-63
2023/03/17 10:07:15;;;;;;;3.25;2.38;;;;;;;;;;5152895;27;20070;-63
2023/03/17 10:10:07;;;;;;;2.55;2.35;;;;;;;;;;5140988;27;20053;-63
2023/03/17 10:12:42;;;;;;;2.17;1.98;;;;;;;;;;5146302;27;20454;-63
2023/03/17 10:15:29;;;;;;;2.72;2.15;;;;;;;;;;5152850;27;20046;-63
2023/03/17 10:17:55;;;;;;;3.28;2.55;;;;;;;;;;5127886;27;20055;-63
2023/03/17 10:20:21;;;;;;;3.17;2.38;;;;;;;;;;5146956;27;20504;-63
2023/03/17 10:22:48;;;;;;;2.38;2.00;;;;;;;;;;5154503;27;20053;-63
2023/03/17 10:25:22;;;;;;;2.58;2.35;;;;;;;;;;5144331;27;20095;-62
2023/03/17 10:27:51;;;;;;;3.70;2.65;;;;;;;;;;5141782;27;20043;-63
2023/03/17 10:30:19;;;;;;;3.33;2.90;;;;;;;;;;5131785;27;20061;-64
2023/03/17 10:32:45;;;;;;;4.32;3.55;;;;;;;;;;5153033;27;20061;-64
2023/03/17 10:35:12;;;;;;;2.60;2.40;;;;;;;;;;5149620;27;20039;-63
2023/03/17 10:37:38;;;;;;;8.73;2.95;;;;;;;;;;5143665;27;20043;-63
2023/03/17 10:40:09;;;;;;;6.15;3.00;;;;;;;;;;5135098;27;20043;-64
2023/03/17 10:42:44;;;;;;;2.38;2.17;;;;;;;;;;5142018;27;20069;-63
2023/03/17 10:45:30;;;;;;;3.20;2.35;;;;;;;;;;5141972;27;20108;-65
2023/03/17 10:47:57;;;;;;;8.45;3.30;;;;;;;;;;5141817;27;20099;-63
2023/03/17 10:50:24;;;;;;;4.38;3.63;;;;;;;;;;5137473;27;20045;-63
2023/03/17 10:52:56;;;;;;;5.55;3.20;;;;;;;;;;5149188;27;20090;-63
2023/03/17 10:55:25;;;;;;;3.78;3.22;;;;;;;;;;5149233;27;20066;-63
2023/03/17 10:58:00;;;;;;;3.58;3.25;;;;;;;;;;5157845;27;20055;-63
2023/03/17 11:00:28;;;;;;;3.65;2.55;;;;;;;;;;5148432;27;20043;-64
2023/03/17 11:02:58;;;;;;;5.18;3.72;;;;;;;;;;5150133;27;20488;-63
2023/03/17 11:05:28;;;;;;;5.03;4.40;;;;;;;;;;5147787;27;20567;-63
2023/03/17 11:07:58;;;;;;;5.65;3.40;;;;;;;;;;5145589;27;20059;-63
2023/03/17 11:10:26;;;;;;;3.75;3.45;;;;;;;;;;5148697;27;20406;-63
2023/03/17 11:12:59;;;;;;;4.57;3.58;;;;;;;;;;5151537;27;20046;-63
2023/03/17 11:15:28;;;;;;;3.72;3.22;;;;;;;;;;5150995;27;20124;-63
2023/03/17 11:17:57;;;;;;;5.75;3.00;;;;;;;;;;5152815;27;20043;-63
2023/03/17 11:20:30;;;;;;;3.30;3.00;;;;;;;;;;5149132;27;20213;-63
2023/03/17 11:23:03;;;;;;;3.17;2.80;;;;;;;;;;5151569;27;20122;-64
2023/03/17 11:25:31;;;;;;;5.18;4.38;;;;;;;;;;5152052;27;20086;-64
2023/03/17 11:28:15;;;;;;;3.60;3.17;;;;;;;;;;5153287;27;20065;-63
2023/03/17 11:30:41;;;;;;;6.32;3.50;;;;;;;;;;5152951;27;20061;-64
2023/03/17 11:33:16;;;;;;;4.88;4.35;;;;;;;;;;5146853;27;20419;-63
2023/03/17 11:35:42;;;;;;;4.80;3.75;;;;;;;;;;5151338;27;21611;-63
2023/03/17 11:38:11;;;;;;;5.35;3.67;;;;;;;;;;5149396;27;20450;-63
2023/03/17 11:40:46;;;;;;;4.38;3.38;;;;;;;;;;5150035;27;20580;-63
2023/03/17 11:43:31;;;;;;;5.60;3.90;;;;;;;;;;5149376;27;20057;-64
2023/03/17 11:45:57;;;;;;;4.20;3.25;;;;;;;;;;5154613;27;20417;-63
2023/03/17 11:48:41;;;;;;;4.55;2.67;;;;;;;;;;5152897;27;20054;-62
2023/03/17 11:51:17;;;;;;;3.78;3.47;;;;;;;;;;5145964;27;20481;-63
2023/03/17 11:53:43;;;;;;;5.13;3.78;;;;;;;;;;5133502;27;20070;-63
2023/03/17 11:56:14;;;;;;;4.72;3.88;;;;;;;;;;5136320;27;20035;-63
2023/03/17 11:58:44;;;;;;;5.70;3.47;;;;;;;;;;5148284;27;20092;-63
2023/03/17 12:01:22;;;;;;;4.47;3.72;;;;;;;;;;5134129;27;20126;-62
2023/03/17 12:03:54;;;;;;;3.85;3.55;;;;;;;;;;5112922;27;20059;-63
2023/03/17 12:06:32;;;;;;;4.00;3.60;;;;;;;;;;5132528;27;20041;-63
2023/03/17 12:09:00;;;;;;;4.57;4.13;;;;;;;;;;5137847;27;20416;-63
2023/03/17 12:11:31;;;;;;;4.90;4.20;;;;;;;;;;5115134;27;20442;-61
2023/03/17 12:14:00;;;;;;;4.72;4.20;;;;;;;;;;5127657;27;20047;-63
2023/03/17 12:16:32;;;;;;;5.07;4.68;;;;;;;;;;5112590;27;20464;-63
2023/03/17 12:19:07;;;;;;;5.57;4.07;;;;;;;;;;5127239;27;20520;-64
2023/03/17 12:21:44;;;;;;;5.75;4.28;;;;;;;;;;5136301;27;20043;-63
2023/03/17 12:24:11;;;;;;;4.20;3.80;;;;;;;;;;5130917;27;20050;-63
2023/03/17 12:26:39;;;;;;;4.85;4.40;;;;;;;;;;5128595;27;20050;-63
2023/03/17 12:29:17;;;;;;;6.57;4.78;;;;;;;;;;5132991;27;20066;-63
2023/03/17 12:31:45;;;;;;;6.03;4.00;;;;;;;;;;5145210;27;20070;-64
2023/03/17 12:34:22;;;;;;;4.82;4.32;;;;;;;;;;5138563;27;20038;-63
2023/03/17 12:36:49;;;;;;;6.63;4.72;;;;;;;;;;5137594;27;20444;-63
2023/03/17 12:39:18;;;;;;;7.38;5.30;;;;;;;;;;5134115;27;20638;-63
2023/03/17 12:42:05;;;;;;;7.10;4.72;;;;;;;;;;5133582;27;20035;-62
2023/03/17 12:44:38;;;;;;;5.18;4.65;;;;;;;;;;5137115;27;20047;-63
2023/03/17 12:47:14;;;;;;;8.98;5.47;;;;;;;;;;5116232;27;20042;-62
2023/03/17 12:49:43;;;;;;;5.20;4.70;;;;;;;;;;5142346;27;20147;-62
2023/03/17 12:52:25;;;;;;;7.32;4.93;;;;;;;;;;5140324;27;20762;-63
2023/03/17 12:54:52;;;;;;;4.75;4.25;;;;;;;;;;5132795;27;20050;-63
2023/03/17 12:57:23;;;;;;;6.82;4.50;;;;;;;;;;5134434;27;20039;-63
2023/03/17 12:59:50;;;;;;;5.15;4.65;;;;;;;;;;5135693;27;20045;-63
2023/03/17 13:02:16;;;;;;;7.25;5.15;;;;;;;;;;5133751;27;20062;-63
2023/03/17 13:04:56;;;;;;;6.22;5.03;;;;;;;;;;5135079;27;20045;-62
2023/03/17 13:07:25;;;;;;;7.20;5.60;;;;;;;;;;5134810;27;20554;-61
2023/03/17 13:09:54;;;;;;;7.22;4.28;;;;;;;;;;5136906;27;20039;-60
2023/03/17 13:12:56;;;;;;;5.55;4.13;;;;;;;;;;5132378;27;20047;-61
2023/03/17 13:15:22;;;;;;;5.25;3.90;;;;;;;;;;5138792;27;20050;-61
2023/03/17 13:17:48;;;;;;;4.95;4.43;;;;;;;;;;5128284;27;20505;-62
2023/03/17 13:20:16;;;;;;;5.43;4.45;;;;;;;;;;5136422;27;20081;-61
2023/03/17 13:23:01;;;;;;;4.15;3.65;;;;;;;;;;5140016;27;20058;-61
2023/03/17 13:25:32;;;;;;;5.28;2.95;;;;;;;;;;5131148;27;20611;-61
2023/03/17 13:28:13;;;;;;;5.88;4.47;;;;;;;;;;5133078;27;20122;-61
2023/03/17 13:30:39;;;;;;;4.55;2.88;;;;;;;;;;5134759;27;20043;-61
2023/03/17 13:33:08;;;;;;;4.53;3.10;;;;;;;;;;5136867;27;20485;-61
2023/03/17 13:35:46;;;;;;;3.30;2.90;;;;;;;;;;5128190;27;20091;-61
2023/03/17 13:38:12;;;;;;;3.78;2.28;;;;;;;;;;5130618;27;20070;-61
2023/03/17 13:40:57;;;;;;;2.85;2.15;;;;;;;;;;5133158;27;20043;-61
2023/03/17 13:43:41;;;;;;;5.00;2.28;;;;;;;;;;5140888;27;20492;-61
2023/03/17 13:46:26;;;;;;;5.28;3.15;;;;;;;;;;5144631;27;20047;-61
2023/03/17 13:48:53;;;;;;;4.35;2.30;;;;;;;;;;5142271;27;20778;-61
2023/03/17 13:51:23;;;;;;;2.20;1.98;;;;;;;;;;5150228;27;20034;-61
2023/03/17 13:53:49;;;;;;;2.80;1.92;;;;;;;;;;5124497;27;20045;-60
2023/03/17 13:56:35;;;;;;;2.70;2.08;;;;;;;;;;5133784;27;20399;-61
2023/03/17 13:59:05;;;;;;;3.38;3.08;;;;;;;;;;5113974;27;20027;-61
2023/03/17 14:01:40;;;;;;;3.13;2.80;;;;;;;;;;5135611;27;20062;-61
2023/03/17 14:04:12;;;;;;;2.55;2.35;;;;;;;;;;5136278;27;20373;-60
2023/03/17 14:06:38;;;;;;;3.63;3.05;;;;;;;;;;5129431;27;20125;-60
2023/03/17 14:09:10;;;;;;;3.88;3.53;;;;;;;;;;5135399;27;20543;-62
2023/03/17 14:11:37;;;;;;;4.68;4.28;;;;;;;;;;5131559;27;20142;-63
2023/03/17 14:14:09;;;;;;;4.95;3.45;;;;;;;;;;5136644;27;20088;-62
2023/03/17 14:16:41;;;;;;;4.00;3.58;;;;;;;;;;5150348;27;20078;-63
2023/03/17 14:19:11;;;;;;;5.20;3.88;;;;;;;;;;5146243;27;20050;-62
2023/03/17 14:21:37;;;;;;;6.50;4.40;;;;;;;;;;5145936;27;20047;-63
2023/03/17 14:24:16;;;;;;;4.07;3.55;;;;;;;;;;5146578;27;20041;-64
2023/03/17 14:26:42;;;;;;;5.78;4.28;;;;;;;;;;5147834;27;20039;-64
2023/03/17 14:29:12;;;;;;;5.18;3.92;;;;;;;;;;5153147;27;20054;-64
2023/03/17 14:31:38;;;;;;;3.95;3.40;;;;;;;;;;5152899;27;20038;-64
2023/03/17 14:34:12;;;;;;;3.03;2.17;;;;;;;;;;5145942;27;20039;-64
2023/03/17 14:36:38;;;;;;;3.50;2.40;;;;;;;;;;5140026;27;20045;-64
2023/03/17 14:39:04;;;;;;;3.47;3.17;;;;;;;;;;5138558;27;20382;-64
2023/03/17 14:41:33;;;;;;;5.53;3.47;;;;;;;;;;5137326;27;20054;-64
2023/03/17 14:44:00;;;;;;;6.63;3.78;;;;;;;;;;5133625;27;20505;-64
2023/03/17 14:46:37;;;;;;;4.20;3.80;;;;;;;;;;5127138;27;20451;-64
2023/03/17 14:49:12;;;;;;;3.70;3.00;;;;;;;;;;5130450;27;20761;-64